sensor_id;sensor_type;location;lat;lon;timestamp;P1;durP1;ratioP1;P2;durP2;ratioP2
79670;SDS011;69137;50.878;8.050;2023-10-09T00:02:09;4.63;;;2.33;;
79670;SDS011;69137;50.878;8.050;2023-10-09T00:04:36;5.93;;;2.97;;
79670;SDS011;69137;50.878;8.050;2023-10-09T00:07:10;4.15;;;2.55;;
79670;SDS011;69137;50.878;8.050;2023-10-09T00:09:42;5.78;;;2.65;;
79670;SDS011;69137;50.878;8.050;2023-10-09T00:12:19;4.95;;;2.60;;
79670;SDS011;69137;50.878;8.050;2023-10-09T00:14:48;4.38;;;2.75;;
79670;SDS011;69137;50.878;8.050;2023-10-09T00:17:16;5.57;;;2.78;;
79670;SDS011;69137;50.878;8.050;2023-10-09T00:19:45;6.38;;;2.88;;
79670;SDS011;69137;50.878;8.050;2023-10-09T00:22:12;9.38;;;2.90;;
79670;SDS011;69137;50.878;8.050;2023-10-09T00:24:58;8.63;;;2.95;;
79670;SDS011;69137;50.878;8.050;2023-10-09T00:27:37;7.57;;;2.63;;
79670;SDS011;69137;50.878;8.050;2023-10-09T00:30:08;4.50;;;2.53;;
79670;SDS011;69137;50.878;8.050;2023-10-09T00:32:43;4.78;;;2.22;;
79670;SDS011;69137;50.878;8.050;2023-10-09T00:35:18;6.32;;;2.92;;
79670;SDS011;69137;50.878;8.050;2023-10-09T00:38:05;4.72;;;2.72;;
79670;SDS011;69137;50.878;8.050;2023-10-09T00:40:54;3.67;;;2.33;;
79670;SDS011;69137;50.878;8.050;2023-10-09T00:43:29;5.70;;;2.92;;
79670;SDS011;69137;50.878;8.050;2023-10-09T00:45:56;4.90;;;2.50;;
79670;SDS011;69137;50.878;8.050;2023-10-09T00:48:37;6.35;;;2.83;;
79670;SDS011;69137;50.878;8.050;2023-10-09T00:51:05;4.65;;;2.65;;
79670;SDS011;69137;50.878;8.050;2023-10-09T00:53:41;6.32;;;3.15;;
79670;SDS011;69137;50.878;8.050;2023-10-09T00:56:08;5.30;;;2.63;;
79670;SDS011;69137;50.878;8.050;2023-10-09T00:58:45;5.93;;;2.50;;
79670;SDS011;69137;50.878;8.050;2023-10-09T01:01:12;8.45;;;3.25;;
79670;SDS011;69137;50.878;8.050;2023-10-09T01:03:41;3.80;;;2.42;;
79670;SDS011;69137;50.878;8.050;2023-10-09T01:06:08;4.95;;;3.05;;
79670;SDS011;69137;50.878;8.050;2023-10-09T01:08:34;4.95;;;2.97;;
79670;SDS011;69137;50.878;8.050;2023-10-09T01:11:06;6.38;;;3.28;;
79670;SDS011;69137;50.878;8.050;2023-10-09T01:13:36;7.63;;;2.83;;
79670;SDS011;69137;50.878;8.050;2023-10-09T01:16:25;8.10;;;2.50;;
79670;SDS011;69137;50.878;8.050;2023-10-09T01:18:54;6.40;;;2.83;;
79670;SDS011;69137;50.878;8.050;2023-10-09T01:21:24;4.88;;;2.80;;
79670;SDS011;69137;50.878;8.050;2023-10-09T01:23:51;4.15;;;2.92;;
79670;SDS011;69137;50.878;8.050;2023-10-09T01:26:29;6.32;;;3.20;;
79670;SDS011;69137;50.878;8.050;2023-10-09T01:29:05;8.45;;;2.40;;
79670;SDS011;69137;50.878;8.050;2023-10-09T01:31:35;3.63;;;2.35;;
79670;SDS011;69137;50.878;8.050;2023-10-09T01:34:03;4.78;;;2.75;;
79670;SDS011;69137;50.878;8.050;2023-10-09T01:36:35;5.57;;;2.60;;
79670;SDS011;69137;50.878;8.050;2023-10-09T01:39:04;3.97;;;2.33;;
79670;SDS011;69137;50.878;8.050;2023-10-09T01:41:47;6.75;;;2.67;;
79670;SDS011;69137;50.878;8.050;2023-10-09T01:44:14;4.43;;;3.00;;
79670;SDS011;69137;50.878;8.050;2023-10-09T01:46:41;4.60;;;2.33;;
79670;SDS011;69137;50.878;8.050;2023-10-09T01:49:10;4.53;;;2.67;;
79670;SDS011;69137;50.878;8.050;2023-10-09T01:51:43;6.05;;;2.63;;
79670;SDS011;69137;50.878;8.050;2023-10-09T01:54:08;6.65;;;2.45;;
79670;SDS011;69137;50.878;8.050;2023-10-09T01:56:56;6.70;;;3.28;;
79670;SDS011;69137;50.878;8.050;2023-10-09T01:59:22;4.70;;;2.88;;
79670;SDS011;69137;50.878;8.050;2023-10-09T02:01:47;5.47;;;2.58;;
79670;SDS011;69137;50.878;8.050;2023-10-09T02:04:13;5.60;;;2.88;;
79670;SDS011;69137;50.878;8.050;2023-10-09T02:06:39;6.35;;;2.40;;
79670;SDS011;69137;50.878;8.050;2023-10-09T02:09:05;4.07;;;2.45;;
79670;SDS011;69137;50.878;8.050;2023-10-09T02:11:31;3.53;;;2.22;;
79670;SDS011;69137;50.878;8.050;2023-10-09T02:14:06;6.95;;;3.00;;
79670;SDS011;69137;50.878;8.050;2023-10-09T02:16:44;3.15;;;2.10;;
79670;SDS011;69137;50.878;8.050;2023-10-09T02:19:29;3.85;;;2.50;;
79670;SDS011;69137;50.878;8.050;2023-10-09T02:22:05;5.90;;;2.85;;
79670;SDS011;69137;50.878;8.050;2023-10-09T02:24:43;6.50;;;2.60;;
79670;SDS011;69137;50.878;8.050;2023-10-09T02:27:12;4.80;;;2.83;;
79670;SDS011;69137;50.878;8.050;2023-10-09T02:29:44;6.30;;;2.67;;
79670;SDS011;69137;50.878;8.050;2023-10-09T02:32:12;6.63;;;2.83;;
79670;SDS011;69137;50.878;8.050;2023-10-09T02:34:51;5.80;;;2.72;;
79670;SDS011;69137;50.878;8.050;2023-10-09T02:37:19;6.03;;;3.08;;
79670;SDS011;69137;50.878;8.050;2023-10-09T02:39:49;7.70;;;3.13;;
79670;SDS011;69137;50.878;8.050;2023-10-09T02:42:17;5.00;;;2.53;;
79670;SDS011;69137;50.878;8.050;2023-10-09T02:44:53;4.20;;;2.40;;
79670;SDS011;69137;50.878;8.050;2023-10-09T02:47:18;6.38;;;2.75;;
79670;SDS011;69137;50.878;8.050;2023-10-09T02:49:54;3.65;;;2.47;;
79670;SDS011;69137;50.878;8.050;2023-10-09T02:52:25;4.35;;;2.47;;
79670;SDS011;69137;50.878;8.050;2023-10-09T02:54:57;3.88;;;2.30;;
79670;SDS011;69137;50.878;8.050;2023-10-09T02:57:32;5.85;;;2.67;;
79670;SDS011;69137;50.878;8.050;2023-10-09T03:00:06;6.32;;;2.60;;
79670;SDS011;69137;50.878;8.050;2023-10-09T03:02:43;4.65;;;2.58;;
79670;SDS011;69137;50.878;8.050;2023-10-09T03:05:09;4.53;;;2.33;;
79670;SDS011;69137;50.878;8.050;2023-10-09T03:07:37;6.97;;;2.72;;
79670;SDS011;69137;50.878;8.050;2023-10-09T03:10:05;7.88;;;2.92;;
79670;SDS011;69137;50.878;8.050;2023-10-09T03:12:34;7.43;;;2.65;;
79670;SDS011;69137;50.878;8.050;2023-10-09T03:15:00;8.02;;;3.08;;
79670;SDS011;69137;50.878;8.050;2023-10-09T03:17:27;5.32;;;2.72;;
79670;SDS011;69137;50.878;8.050;2023-10-09T03:19:52;6.85;;;2.35;;
79670;SDS011;69137;50.878;8.050;2023-10-09T03:22:18;5.18;;;2.55;;
79670;SDS011;69137;50.878;8.050;2023-10-09T03:24:44;3.92;;;2.50;;
79670;SDS011;69137;50.878;8.050;2023-10-09T03:27:14;3.17;;;2.28;;
79670;SDS011;69137;50.878;8.050;2023-10-09T03:29:41;3.47;;;2.05;;
79670;SDS011;69137;50.878;8.050;2023-10-09T03:32:06;4.03;;;2.53;;
79670;SDS011;69137;50.878;8.050;2023-10-09T03:34:34;8.93;;;2.60;;
79670;SDS011;69137;50.878;8.050;2023-10-09T03:36:59;4.47;;;2.33;;
79670;SDS011;69137;50.878;8.050;2023-10-09T03:39:29;4.88;;;3.08;;
79670;SDS011;69137;50.878;8.050;2023-10-09T03:42:00;5.60;;;3.03;;
79670;SDS011;69137;50.878;8.050;2023-10-09T03:44:33;3.47;;;2.13;;
79670;SDS011;69137;50.878;8.050;2023-10-09T03:47:01;5.05;;;2.67;;
79670;SDS011;69137;50.878;8.050;2023-10-09T03:49:27;7.63;;;2.58;;
79670;SDS011;69137;50.878;8.050;2023-10-09T03:51:54;7.43;;;2.90;;
79670;SDS011;69137;50.878;8.050;2023-10-09T03:54:20;6.05;;;2.70;;
79670;SDS011;69137;50.878;8.050;2023-10-09T03:56:47;5.30;;;3.33;;
79670;SDS011;69137;50.878;8.050;2023-10-09T03:59:15;4.53;;;2.65;;
79670;SDS011;69137;50.878;8.050;2023-10-09T04:01:42;4.90;;;2.53;;
79670;SDS011;69137;50.878;8.050;2023-10-09T04:04:09;4.15;;;2.95;;
79670;SDS011;69137;50.878;8.050;2023-10-09T04:06:38;4.55;;;2.78;;
79670;SDS011;69137;50.878;8.050;2023-10-09T04:09:05;8.02;;;2.97;;
79670;SDS011;69137;50.878;8.050;2023-10-09T04:11:52;5.43;;;3.20;;
79670;SDS011;69137;50.878;8.050;2023-10-09T04:14:40;4.53;;;2.90;;
79670;SDS011;69137;50.878;8.050;2023-10-09T04:17:28;8.07;;;2.97;;
79670;SDS011;69137;50.878;8.050;2023-10-09T04:19:53;3.92;;;2.72;;
79670;SDS011;69137;50.878;8.050;2023-10-09T04:22:37;5.95;;;2.85;;
79670;SDS011;69137;50.878;8.050;2023-10-09T04:25:16;5.05;;;2.97;;
79670;SDS011;69137;50.878;8.050;2023-10-09T04:27:53;4.80;;;2.60;;
79670;SDS011;69137;50.878;8.050;2023-10-09T04:30:44;5.03;;;2.60;;
79670;SDS011;69137;50.878;8.050;2023-10-09T04:33:12;3.95;;;2.70;;
79670;SDS011;69137;50.878;8.050;2023-10-09T04:36:06;3.90;;;2.63;;
79670;SDS011;69137;50.878;8.050;2023-10-09T04:38:48;5.60;;;2.85;;
79670;SDS011;69137;50.878;8.050;2023-10-09T04:41:23;4.97;;;3.08;;
79670;SDS011;69137;50.878;8.050;2023-10-09T04:46:47;9.88;;;3.05;;
79670;SDS011;69137;50.878;8.050;2023-10-09T04:49:32;6.72;;;3.20;;
79670;SDS011;69137;50.878;8.050;2023-10-09T04:52:16;4.95;;;2.65;;
79670;SDS011;69137;50.878;8.050;2023-10-09T04:54:54;6.63;;;2.97;;
79670;SDS011;69137;50.878;8.050;2023-10-09T04:57:32;8.98;;;2.97;;
79670;SDS011;69137;50.878;8.050;2023-10-09T05:00:17;8.65;;;3.70;;
79670;SDS011;69137;50.878;8.050;2023-10-09T05:05:21;5.35;;;3.00;;
79670;SDS011;69137;50.878;8.050;2023-10-09T05:08:05;5.03;;;2.92;;
79670;SDS011;69137;50.878;8.050;2023-10-09T05:10:50;4.70;;;2.70;;
79670;SDS011;69137;50.878;8.050;2023-10-09T05:13:40;6.72;;;2.63;;
79670;SDS011;69137;50.878;8.050;2023-10-09T05:16:09;4.80;;;2.92;;
79670;SDS011;69137;50.878;8.050;2023-10-09T05:18:50;5.10;;;3.10;;
79670;SDS011;69137;50.878;8.050;2023-10-09T05:24:01;6.45;;;2.50;;
79670;SDS011;69137;50.878;8.050;2023-10-09T05:32:15;5.57;;;3.20;;
79670;SDS011;69137;50.878;8.050;2023-10-09T05:34:53;6.85;;;2.95;;
79670;SDS011;69137;50.878;8.050;2023-10-09T05:37:26;6.50;;;2.92;;
79670;SDS011;69137;50.878;8.050;2023-10-09T05:39:52;6.28;;;3.05;;
79670;SDS011;69137;50.878;8.050;2023-10-09T05:42:35;6.47;;;3.42;;
79670;SDS011;69137;50.878;8.050;2023-10-09T05:45:13;5.47;;;3.15;;
79670;SDS011;69137;50.878;8.050;2023-10-09T05:47:42;8.25;;;3.65;;
79670;SDS011;69137;50.878;8.050;2023-10-09T05:50:27;7.47;;;3.45;;
79670;SDS011;69137;50.878;8.050;2023-10-09T05:52:56;6.00;;;3.42;;
79670;SDS011;69137;50.878;8.050;2023-10-09T05:55:30;5.43;;;2.83;;
79670;SDS011;69137;50.878;8.050;2023-10-09T05:58:02;6.75;;;3.50;;
79670;SDS011;69137;50.878;8.050;2023-10-09T06:00:33;10.30;;;3.35;;
79670;SDS011;69137;50.878;8.050;2023-10-09T06:03:18;5.57;;;3.08;;
79670;SDS011;69137;50.878;8.050;2023-10-09T06:05:43;6.07;;;3.40;;
79670;SDS011;69137;50.878;8.050;2023-10-09T06:08:21;8.20;;;3.65;;
79670;SDS011;69137;50.878;8.050;2023-10-09T06:11:06;7.07;;;3.67;;
79670;SDS011;69137;50.878;8.050;2023-10-09T06:13:52;6.32;;;3.47;;
79670;SDS011;69137;50.878;8.050;2023-10-09T06:16:36;11.27;;;3.88;;
79670;SDS011;69137;50.878;8.050;2023-10-09T06:19:09;7.40;;;3.65;;
79670;SDS011;69137;50.878;8.050;2023-10-09T06:21:45;8.70;;;3.63;;
79670;SDS011;69137;50.878;8.050;2023-10-09T06:24:17;7.93;;;3.60;;
79670;SDS011;69137;50.878;8.050;2023-10-09T06:26:48;9.32;;;3.33;;
79670;SDS011;69137;50.878;8.050;2023-10-09T06:29:23;8.15;;;4.22;;
79670;SDS011;69137;50.878;8.050;2023-10-09T06:32:01;5.63;;;3.47;;
79670;SDS011;69137;50.878;8.050;2023-10-09T06:34:52;8.50;;;3.78;;
79670;SDS011;69137;50.878;8.050;2023-10-09T06:37:40;7.70;;;4.60;;
79670;SDS011;69137;50.878;8.050;2023-10-09T06:40:26;8.18;;;4.20;;
79670;SDS011;69137;50.878;8.050;2023-10-09T06:43:03;5.38;;;3.67;;
79670;SDS011;69137;50.878;8.050;2023-10-09T06:45:35;6.55;;;3.45;;
79670;SDS011;69137;50.878;8.050;2023-10-09T06:48:10;8.32;;;3.83;;
79670;SDS011;69137;50.878;8.050;2023-10-09T06:51:02;5.75;;;3.92;;
79670;SDS011;69137;50.878;8.050;2023-10-09T06:54:00;8.07;;;3.85;;
79670;SDS011;69137;50.878;8.050;2023-10-09T06:56:31;8.48;;;3.90;;
79670;SDS011;69137;50.878;8.050;2023-10-09T06:59:04;8.43;;;4.47;;
79670;SDS011;69137;50.878;8.050;2023-10-09T07:01:49;10.98;;;5.38;;
79670;SDS011;69137;50.878;8.050;2023-10-09T07:04:36;13.45;;;4.70;;
79670;SDS011;69137;50.878;8.050;2023-10-09T07:07:02;6.38;;;3.63;;
79670;SDS011;69137;50.878;8.050;2023-10-09T07:09:32;7.72;;;4.00;;
79670;SDS011;69137;50.878;8.050;2023-10-09T07:12:16;7.03;;;3.53;;
79670;SDS011;69137;50.878;8.050;2023-10-09T07:17:16;11.50;;;4.80;;
79670;SDS011;69137;50.878;8.050;2023-10-09T07:19:49;11.23;;;4.75;;
79670;SDS011;69137;50.878;8.050;2023-10-09T07:22:16;12.48;;;4.53;;
79670;SDS011;69137;50.878;8.050;2023-10-09T07:24:44;10.23;;;7.15;;
79670;SDS011;69137;50.878;8.050;2023-10-09T07:27:16;12.55;;;6.80;;
79670;SDS011;69137;50.878;8.050;2023-10-09T07:29:42;7.32;;;4.88;;
79670;SDS011;69137;50.878;8.050;2023-10-09T07:32:14;12.20;;;5.30;;
79670;SDS011;69137;50.878;8.050;2023-10-09T07:34:45;13.73;;;4.88;;
79670;SDS011;69137;50.878;8.050;2023-10-09T07:37:25;7.70;;;4.07;;
79670;SDS011;69137;50.878;8.050;2023-10-09T07:39:59;10.70;;;5.28;;
79670;SDS011;69137;50.878;8.050;2023-10-09T07:42:31;10.65;;;4.63;;
79670;SDS011;69137;50.878;8.050;2023-10-09T07:45:09;7.43;;;4.47;;
79670;SDS011;69137;50.878;8.050;2023-10-09T07:47:48;10.10;;;4.20;;
79670;SDS011;69137;50.878;8.050;2023-10-09T07:50:27;8.32;;;4.60;;
79670;SDS011;69137;50.878;8.050;2023-10-09T07:53:06;9.82;;;4.45;;
79670;SDS011;69137;50.878;8.050;2023-10-09T07:55:51;9.32;;;4.93;;
79670;SDS011;69137;50.878;8.050;2023-10-09T07:58:29;7.53;;;4.53;;
79670;SDS011;69137;50.878;8.050;2023-10-09T08:00:56;9.10;;;4.32;;
79670;SDS011;69137;50.878;8.050;2023-10-09T08:03:32;9.30;;;4.65;;
79670;SDS011;69137;50.878;8.050;2023-10-09T08:05:59;9.63;;;5.07;;
79670;SDS011;69137;50.878;8.050;2023-10-09T08:08:44;9.13;;;5.70;;
79670;SDS011;69137;50.878;8.050;2023-10-09T08:11:29;17.60;;;9.88;;
79670;SDS011;69137;50.878;8.050;2023-10-09T08:16:45;20.30;;;10.07;;
79670;SDS011;69137;50.878;8.050;2023-10-09T08:19:11;16.75;;;8.80;;
79670;SDS011;69137;50.878;8.050;2023-10-09T08:21:57;14.98;;;8.38;;
79670;SDS011;69137;50.878;8.050;2023-10-09T08:24:44;15.45;;;7.30;;
79670;SDS011;69137;50.878;8.050;2023-10-09T08:27:17;13.35;;;7.45;;
79670;SDS011;69137;50.878;8.050;2023-10-09T08:29:55;13.45;;;7.88;;
79670;SDS011;69137;50.878;8.050;2023-10-09T08:32:42;14.43;;;7.55;;
79670;SDS011;69137;50.878;8.050;2023-10-09T08:35:21;10.93;;;6.32;;
79670;SDS011;69137;50.878;8.050;2023-10-09T08:37:57;21.48;;;6.45;;
79670;SDS011;69137;50.878;8.050;2023-10-09T08:40:36;8.95;;;5.60;;
79670;SDS011;69137;50.878;8.050;2023-10-09T08:43:24;9.45;;;6.40;;
79670;SDS011;69137;50.878;8.050;2023-10-09T08:45:51;11.95;;;6.38;;
79670;SDS011;69137;50.878;8.050;2023-10-09T08:48:19;15.65;;;6.78;;
79670;SDS011;69137;50.878;8.050;2023-10-09T08:50:47;10.05;;;6.38;;
79670;SDS011;69137;50.878;8.050;2023-10-09T08:55:41;10.10;;;6.65;;
79670;SDS011;69137;50.878;8.050;2023-10-09T08:58:07;14.35;;;6.07;;
79670;SDS011;69137;50.878;8.050;2023-10-09T09:00:52;11.82;;;5.88;;
79670;SDS011;69137;50.878;8.050;2023-10-09T09:03:20;12.63;;;6.95;;
79670;SDS011;69137;50.878;8.050;2023-10-09T09:05:57;14.45;;;7.03;;
79670;SDS011;69137;50.878;8.050;2023-10-09T09:08:26;19.92;;;6.28;;
79670;SDS011;69137;50.878;8.050;2023-10-09T09:10:59;14.25;;;7.03;;
79670;SDS011;69137;50.878;8.050;2023-10-09T09:18:56;14.65;;;7.30;;
79670;SDS011;69137;50.878;8.050;2023-10-09T09:21:26;16.45;;;5.95;;
79670;SDS011;69137;50.878;8.050;2023-10-09T09:23:56;8.43;;;5.38;;
79670;SDS011;69137;50.878;8.050;2023-10-09T09:26:38;12.25;;;5.50;;
79670;SDS011;69137;50.878;8.050;2023-10-09T09:29:10;13.82;;;5.95;;
79670;SDS011;69137;50.878;8.050;2023-10-09T09:31:36;11.30;;;5.68;;
79670;SDS011;69137;50.878;8.050;2023-10-09T09:34:06;11.38;;;5.78;;
79670;SDS011;69137;50.878;8.050;2023-10-09T09:36:55;12.48;;;5.38;;
79670;SDS011;69137;50.878;8.050;2023-10-09T09:41:59;11.30;;;5.78;;
79670;SDS011;69137;50.878;8.050;2023-10-09T09:44:39;11.88;;;5.75;;
79670;SDS011;69137;50.878;8.050;2023-10-09T09:47:16;12.75;;;5.47;;
79670;SDS011;69137;50.878;8.050;2023-10-09T09:49:55;9.88;;;6.47;;
79670;SDS011;69137;50.878;8.050;2023-10-09T09:52:37;13.85;;;5.18;;
79670;SDS011;69137;50.878;8.050;2023-10-09T09:55:07;10.27;;;5.32;;
79670;SDS011;69137;50.878;8.050;2023-10-09T09:57:47;13.07;;;5.88;;
79670;SDS011;69137;50.878;8.050;2023-10-09T10:00:18;12.27;;;6.70;;
79670;SDS011;69137;50.878;8.050;2023-10-09T10:03:10;14.80;;;5.68;;
79670;SDS011;69137;50.878;8.050;2023-10-09T10:05:37;13.07;;;6.00;;
79670;SDS011;69137;50.878;8.050;2023-10-09T10:08:07;14.00;;;6.15;;
79670;SDS011;69137;50.878;8.050;2023-10-09T10:10:39;12.93;;;5.57;;
79670;SDS011;69137;50.878;8.050;2023-10-09T10:13:17;10.93;;;6.03;;
79670;SDS011;69137;50.878;8.050;2023-10-09T10:16:08;13.90;;;5.80;;
79670;SDS011;69137;50.878;8.050;2023-10-09T10:18:59;8.68;;;5.55;;
79670;SDS011;69137;50.878;8.050;2023-10-09T10:21:50;11.10;;;5.53;;
79670;SDS011;69137;50.878;8.050;2023-10-09T10:35:17;9.65;;;4.85;;
79670;SDS011;69137;50.878;8.050;2023-10-09T10:37:58;10.68;;;5.53;;
79670;SDS011;69137;50.878;8.050;2023-10-09T10:40:32;8.30;;;4.72;;
79670;SDS011;69137;50.878;8.050;2023-10-09T10:43:06;10.10;;;4.70;;
79670;SDS011;69137;50.878;8.050;2023-10-09T10:45:37;9.38;;;4.93;;
79670;SDS011;69137;50.878;8.050;2023-10-09T10:50:34;10.35;;;4.28;;
79670;SDS011;69137;50.878;8.050;2023-10-09T10:53:12;8.77;;;5.22;;
79670;SDS011;69137;50.878;8.050;2023-10-09T10:56:00;11.50;;;4.45;;
79670;SDS011;69137;50.878;8.050;2023-10-09T10:58:38;7.10;;;4.15;;
79670;SDS011;69137;50.878;8.050;2023-10-09T11:01:20;11.85;;;4.43;;
79670;SDS011;69137;50.878;8.050;2023-10-09T11:03:50;9.38;;;4.65;;
79670;SDS011;69137;50.878;8.050;2023-10-09T11:06:28;8.93;;;4.38;;
79670;SDS011;69137;50.878;8.050;2023-10-09T11:09:07;9.32;;;4.88;;
79670;SDS011;69137;50.878;8.050;2023-10-09T11:11:35;11.00;;;4.53;;
79670;SDS011;69137;50.878;8.050;2023-10-09T11:14:12;9.98;;;4.38;;
79670;SDS011;69137;50.878;8.050;2023-10-09T11:16:42;9.77;;;4.43;;
79670;SDS011;69137;50.878;8.050;2023-10-09T11:19:12;13.63;;;4.80;;
79670;SDS011;69137;50.878;8.050;2023-10-09T11:22:08;12.32;;;5.10;;
79670;SDS011;69137;50.878;8.050;2023-10-09T11:24:34;11.27;;;5.07;;
79670;SDS011;69137;50.878;8.050;2023-10-09T11:27:04;8.43;;;4.88;;
79670;SDS011;69137;50.878;8.050;2023-10-09T11:29:31;11.57;;;4.97;;
79670;SDS011;69137;50.878;8.050;2023-10-09T11:32:13;16.45;;;5.70;;
79670;SDS011;69137;50.878;8.050;2023-10-09T11:34:47;9.07;;;4.55;;
79670;SDS011;69137;50.878;8.050;2023-10-09T11:37:21;11.50;;;4.05;;
79670;SDS011;69137;50.878;8.050;2023-10-09T11:40:26;7.57;;;4.85;;
79670;SDS011;69137;50.878;8.050;2023-10-09T11:43:14;11.07;;;4.93;;
79670;SDS011;69137;50.878;8.050;2023-10-09T11:45:40;12.52;;;5.05;;
79670;SDS011;69137;50.878;8.050;2023-10-09T11:48:19;9.32;;;4.63;;
79670;SDS011;69137;50.878;8.050;2023-10-09T11:51:14;9.20;;;4.90;;
79670;SDS011;69137;50.878;8.050;2023-10-09T11:53:46;9.45;;;4.45;;
79670;SDS011;69137;50.878;8.050;2023-10-09T11:56:14;9.18;;;3.85;;
79670;SDS011;69137;50.878;8.050;2023-10-09T11:58:46;8.63;;;4.40;;
79670;SDS011;69137;50.878;8.050;2023-10-09T12:01:14;10.52;;;4.80;;
79670;SDS011;69137;50.878;8.050;2023-10-09T12:03:45;9.15;;;4.78;;
79670;SDS011;69137;50.878;8.050;2023-10-09T12:06:15;15.20;;;6.50;;
79670;SDS011;69137;50.878;8.050;2023-10-09T12:08:44;7.13;;;4.05;;
79670;SDS011;69137;50.878;8.050;2023-10-09T12:11:12;8.60;;;4.32;;
79670;SDS011;69137;50.878;8.050;2023-10-09T12:13:39;8.70;;;3.78;;
79670;SDS011;69137;50.878;8.050;2023-10-09T12:16:07;8.25;;;3.85;;
79670;SDS011;69137;50.878;8.050;2023-10-09T12:18:36;7.60;;;4.43;;
79670;SDS011;69137;50.878;8.050;2023-10-09T12:21:04;8.45;;;4.32;;
79670;SDS011;69137;50.878;8.050;2023-10-09T12:23:30;6.28;;;4.15;;
79670;SDS011;69137;50.878;8.050;2023-10-09T12:26:02;7.18;;;4.63;;
79670;SDS011;69137;50.878;8.050;2023-10-09T12:28:28;8.55;;;3.72;;
79670;SDS011;69137;50.878;8.050;2023-10-09T12:30:55;7.53;;;4.28;;
79670;SDS011;69137;50.878;8.050;2023-10-09T12:33:21;7.38;;;4.10;;
79670;SDS011;69137;50.878;8.050;2023-10-09T12:35:52;11.38;;;4.15;;
79670;SDS011;69137;50.878;8.050;2023-10-09T12:38:18;7.30;;;4.35;;
79670;SDS011;69137;50.878;8.050;2023-10-09T12:40:47;11.90;;;4.35;;
79670;SDS011;69137;50.878;8.050;2023-10-09T12:43:18;6.88;;;3.75;;
79670;SDS011;69137;50.878;8.050;2023-10-09T12:45:45;8.38;;;4.70;;
79670;SDS011;69137;50.878;8.050;2023-10-09T12:48:11;7.18;;;3.90;;
79670;SDS011;69137;50.878;8.050;2023-10-09T12:50:37;6.93;;;4.30;;
79670;SDS011;69137;50.878;8.050;2023-10-09T12:53:09;10.25;;;4.65;;
79670;SDS011;69137;50.878;8.050;2023-10-09T12:55:40;8.23;;;3.97;;
79670;SDS011;69137;50.878;8.050;2023-10-09T12:58:09;7.43;;;4.05;;
79670;SDS011;69137;50.878;8.050;2023-10-09T13:00:40;7.65;;;4.25;;
79670;SDS011;69137;50.878;8.050;2023-10-09T13:03:12;9.65;;;3.95;;
79670;SDS011;69137;50.878;8.050;2023-10-09T13:05:47;8.13;;;4.65;;
79670;SDS011;69137;50.878;8.050;2023-10-09T13:08:29;8.07;;;4.63;;
79670;SDS011;69137;50.878;8.050;2023-10-09T13:11:05;6.68;;;3.67;;
79670;SDS011;69137;50.878;8.050;2023-10-09T13:13:42;8.75;;;4.50;;
79670;SDS011;69137;50.878;8.050;2023-10-09T13:16:09;8.77;;;4.18;;
79670;SDS011;69137;50.878;8.050;2023-10-09T13:18:45;6.55;;;3.80;;
79670;SDS011;69137;50.878;8.050;2023-10-09T13:21:18;6.90;;;3.72;;
79670;SDS011;69137;50.878;8.050;2023-10-09T13:23:45;8.77;;;4.38;;
79670;SDS011;69137;50.878;8.050;2023-10-09T13:26:14;8.52;;;4.32;;
79670;SDS011;69137;50.878;8.050;2023-10-09T13:31:24;8.73;;;4.05;;
79670;SDS011;69137;50.878;8.050;2023-10-09T13:33:54;8.30;;;3.85;;
79670;SDS011;69137;50.878;8.050;2023-10-09T13:36:21;8.55;;;3.65;;
79670;SDS011;69137;50.878;8.050;2023-10-09T13:38:57;7.85;;;4.43;;
79670;SDS011;69137;50.878;8.050;2023-10-09T13:41:27;8.23;;;3.83;;
79670;SDS011;69137;50.878;8.050;2023-10-09T13:43:55;6.63;;;3.75;;
79670;SDS011;69137;50.878;8.050;2023-10-09T13:46:24;8.15;;;4.35;;
79670;SDS011;69137;50.878;8.050;2023-10-09T13:48:49;9.13;;;4.50;;
79670;SDS011;69137;50.878;8.050;2023-10-09T13:51:17;9.52;;;3.72;;
79670;SDS011;69137;50.878;8.050;2023-10-09T13:53:44;7.65;;;4.20;;
79670;SDS011;69137;50.878;8.050;2023-10-09T13:56:11;8.43;;;3.85;;
79670;SDS011;69137;50.878;8.050;2023-10-09T13:58:40;10.95;;;4.63;;
79670;SDS011;69137;50.878;8.050;2023-10-09T14:01:08;7.43;;;3.95;;
79670;SDS011;69137;50.878;8.050;2023-10-09T14:03:34;10.60;;;4.90;;
79670;SDS011;69137;50.878;8.050;2023-10-09T14:06:00;8.00;;;4.35;;
79670;SDS011;69137;50.878;8.050;2023-10-09T14:08:35;8.80;;;4.40;;
79670;SDS011;69137;50.878;8.050;2023-10-09T14:11:07;7.15;;;3.95;;
79670;SDS011;69137;50.878;8.050;2023-10-09T14:13:38;8.63;;;3.85;;
79670;SDS011;69137;50.878;8.050;2023-10-09T14:16:07;7.88;;;4.07;;
79670;SDS011;69137;50.878;8.050;2023-10-09T14:18:48;7.30;;;3.97;;
79670;SDS011;69137;50.878;8.050;2023-10-09T14:21:22;8.88;;;4.30;;
79670;SDS011;69137;50.878;8.050;2023-10-09T14:23:51;12.18;;;4.50;;
79670;SDS011;69137;50.878;8.050;2023-10-09T14:26:22;7.13;;;3.97;;
79670;SDS011;69137;50.878;8.050;2023-10-09T14:28:50;9.00;;;3.50;;
79670;SDS011;69137;50.878;8.050;2023-10-09T14:31:17;8.55;;;4.00;;
79670;SDS011;69137;50.878;8.050;2023-10-09T14:33:47;6.97;;;3.65;;
79670;SDS011;69137;50.878;8.050;2023-10-09T14:36:18;8.55;;;4.57;;
79670;SDS011;69137;50.878;8.050;2023-10-09T14:38:54;11.45;;;4.50;;
79670;SDS011;69137;50.878;8.050;2023-10-09T14:41:21;8.45;;;4.05;;
79670;SDS011;69137;50.878;8.050;2023-10-09T14:43:52;8.75;;;3.65;;
79670;SDS011;69137;50.878;8.050;2023-10-09T14:46:17;8.85;;;4.07;;
79670;SDS011;69137;50.878;8.050;2023-10-09T14:48:50;11.90;;;4.45;;
79670;SDS011;69137;50.878;8.050;2023-10-09T14:53:47;9.32;;;4.80;;
79670;SDS011;69137;50.878;8.050;2023-10-09T14:56:14;7.53;;;3.88;;
79670;SDS011;69137;50.878;8.050;2023-10-09T14:58:41;12.75;;;4.18;;
79670;SDS011;69137;50.878;8.050;2023-10-09T15:01:07;8.55;;;4.50;;
79670;SDS011;69137;50.878;8.050;2023-10-09T15:03:36;7.85;;;3.90;;
79670;SDS011;69137;50.878;8.050;2023-10-09T15:06:05;10.80;;;4.65;;
79670;SDS011;69137;50.878;8.050;2023-10-09T15:08:36;8.60;;;4.20;;
79670;SDS011;69137;50.878;8.050;2023-10-09T15:11:02;8.00;;;3.95;;
79670;SDS011;69137;50.878;8.050;2023-10-09T15:13:28;8.98;;;4.25;;
79670;SDS011;69137;50.878;8.050;2023-10-09T15:15:54;9.60;;;4.63;;
79670;SDS011;69137;50.878;8.050;2023-10-09T15:18:21;9.20;;;4.57;;
79670;SDS011;69137;50.878;8.050;2023-10-09T15:20:47;11.77;;;4.75;;
79670;SDS011;69137;50.878;8.050;2023-10-09T15:23:14;10.70;;;4.88;;
79670;SDS011;69137;50.878;8.050;2023-10-09T15:25:39;7.35;;;4.05;;
79670;SDS011;69137;50.878;8.050;2023-10-09T15:28:07;12.95;;;4.55;;
79670;SDS011;69137;50.878;8.050;2023-10-09T15:30:35;13.32;;;4.25;;
79670;SDS011;69137;50.878;8.050;2023-10-09T15:33:04;10.45;;;4.35;;
79670;SDS011;69137;50.878;8.050;2023-10-09T15:35:30;6.85;;;4.25;;
79670;SDS011;69137;50.878;8.050;2023-10-09T15:37:59;9.63;;;4.65;;
79670;SDS011;69137;50.878;8.050;2023-10-09T15:40:30;8.35;;;4.57;;
79670;SDS011;69137;50.878;8.050;2023-10-09T15:43:00;14.18;;;5.88;;
79670;SDS011;69137;50.878;8.050;2023-10-09T15:45:26;12.60;;;5.47;;
79670;SDS011;69137;50.878;8.050;2023-10-09T15:50:20;10.32;;;4.93;;
79670;SDS011;69137;50.878;8.050;2023-10-09T15:52:51;7.72;;;5.20;;
79670;SDS011;69137;50.878;8.050;2023-10-09T15:55:18;14.40;;;5.50;;
79670;SDS011;69137;50.878;8.050;2023-10-09T15:57:46;7.22;;;5.07;;
79670;SDS011;69137;50.878;8.050;2023-10-09T16:02:42;18.40;;;6.07;;
79670;SDS011;69137;50.878;8.050;2023-10-09T16:05:09;9.20;;;4.30;;
79670;SDS011;69137;50.878;8.050;2023-10-09T16:07:40;12.15;;;6.57;;
79670;SDS011;69137;50.878;8.050;2023-10-09T16:10:06;12.35;;;5.15;;
79670;SDS011;69137;50.878;8.050;2023-10-09T16:12:34;10.07;;;5.25;;